Time;durP1;ratioP1;P1;durP2;ratioP2;P2;SDS_P1;SDS_P2;PMS_P1;PMS_P2;Temp;Humidity;BMP_temperature;BMP_pressure;BME280_temperature;BME280_humidity;BME280_pressure;Samples;Min_cycle;Max_cycle;Signal;HPM_P1;HPM_P2
2021/03/20 00:02:00;;;;;;;8.25;5.72;;;;;;;1.95;80.88;102844.44;5279035;28;20492;-75
2021/03/20 00:04:32;;;;;;;13.13;5.93;;;;;;;1.92;81.10;102847.06;5279681;28;20027;-78
2021/03/20 00:07:03;;;;;;;11.27;6.57;;;;;;;1.95;81.05;102836.69;5276819;28;20043;-75
2021/03/20 00:09:34;;;;;;;12.10;6.45;;;;;;;1.95;81.11;102834.09;5278089;28;20107;-76
2021/03/20 00:12:06;;;;;;;11.63;6.07;;;;;;;1.80;80.69;102837.78;5275943;28;20032;-76
2021/03/20 00:14:37;;;;;;;16.48;6.93;;;;;;;1.79;81.24;102841.25;5273585;28;20041;-79
2021/03/20 00:17:09;;;;;;;13.57;6.32;;;;;;;1.79;80.79;102840.41;5276291;28;20063;-77
2021/03/20 00:19:40;;;;;;;11.95;6.03;;;;;;;1.74;81.32;102837.88;5281719;28;20035;-77
2021/03/20 00:22:11;;;;;;;11.55;6.53;;;;;;;1.75;82.51;102833.59;5283354;28;20028;-77
2021/03/20 00:24:43;;;;;;;11.55;6.72;;;;;;;1.69;81.31;102843.13;5270178;28;20423;-76
2021/03/20 00:27:14;;;;;;;10.90;6.82;;;;;;;1.66;81.35;102847.50;5281592;28;20052;-76
2021/03/20 00:29:45;;;;;;;14.20;7.40;;;;;;;1.64;81.68;102842.34;5275633;28;20025;-74
2021/03/20 00:32:17;;;;;;;14.25;6.97;;;;;;;1.55;80.99;102839.03;5279767;28;20032;-79
2021/03/20 00:34:48;;;;;;;9.90;7.07;;;;;;;1.58;81.40;102839.00;5285753;28;20028;-77
2021/03/20 00:37:20;;;;;;;12.73;6.82;;;;;;;1.58;81.25;102841.59;5287313;28;20099;-76
2021/03/20 00:39:51;;;;;;;12.75;7.00;;;;;;;1.53;81.75;102831.34;5281573;28;20374;-78
2021/03/20 00:42:22;;;;;;;11.63;6.57;;;;;;;1.52;81.31;102839.13;5285967;28;20031;-77
2021/03/20 00:44:54;;;;;;;13.02;6.68;;;;;;;1.44;81.01;102836.66;5278874;28;20698;-79
2021/03/20 00:47:25;;;;;;;10.68;6.97;;;;;;;1.39;81.77;102841.00;5281005;28;20025;-77
2021/03/20 00:49:57;;;;;;;12.68;7.00;;;;;;;1.37;81.34;102846.22;5278675;28;20029;-78
2021/03/20 00:52:28;;;;;;;13.27;7.22;;;;;;;1.38;81.87;102855.66;5284967;28;20016;-79
2021/03/20 00:55:00;;;;;;;10.20;6.57;;;;;;;1.32;81.65;102847.97;5278038;28;20482;-76
2021/03/20 00:57:31;;;;;;;14.02;6.93;;;;;;;1.28;82.21;102854.06;5280813;28;20493;-77
2021/03/20 01:00:09;;;;;;;10.10;7.28;;;;;;;1.30;81.66;102859.22;5279858;28;20119;-76
2021/03/20 01:02:40;;;;;;;12.52;7.38;;;;;;;1.25;81.65;102850.66;5279753;28;20111;-77
2021/03/20 01:05:13;;;;;;;11.25;6.63;;;;;;;1.23;82.16;102850.69;5274338;28;20108;-75
2021/03/20 01:07:45;;;;;;;16.88;7.45;;;;;;;1.29;81.86;102860.97;5279920;28;20038;-76
2021/03/20 01:10:21;;;;;;;15.57;8.15;;;;;;;1.28;82.16;102861.81;5299876;28;20024;-76
2021/03/20 01:12:52;;;;;;;12.43;7.15;;;;;;;1.13;81.96;102854.28;5280736;28;20058;-78
2021/03/20 01:15:24;;;;;;;11.68;6.70;;;;;;;1.18;81.95;102861.09;5278798;28;20025;-76
2021/03/20 01:17:55;;;;;;;15.10;7.85;;;;;;;1.22;81.91;102861.91;5277264;28;20458;-76
2021/03/20 01:20:27;;;;;;;14.40;7.38;;;;;;;1.34;82.42;102871.22;5282689;28;20031;-76
2021/03/20 01:22:59;;;;;;;16.23;7.10;;;;;;;1.24;81.69;102867.91;5282423;28;20459;-75
2021/03/20 01:25:32;;;;;;;11.25;7.25;;;;;;;1.23;82.04;102873.09;5280487;28;20020;-77
2021/03/20 01:28:04;;;;;;;10.55;7.18;;;;;;;1.19;81.98;102873.13;5280535;28;20492;-76
2021/03/20 01:30:38;;;;;;;12.93;8.00;;;;;;;1.23;82.16;102873.09;5292092;28;20021;-77
2021/03/20 01:33:11;;;;;;;11.48;7.57;;;;;;;1.18;82.59;102879.16;5277665;28;20449;-75
2021/03/20 01:35:42;;;;;;;10.30;7.45;;;;;;;1.15;82.30;102874.03;5282810;28;20418;-75
2021/03/20 01:38:14;;;;;;;12.95;7.90;;;;;;;1.11;81.67;102877.53;5285416;28;20028;-75
2021/03/20 01:41:12;;;;;;;11.00;7.45;;;;;;;1.23;82.00;102878.25;5282867;28;20114;-71
2021/03/20 01:43:44;;;;;;;11.05;7.53;;;;;;;1.16;82.56;102874.88;5275343;28;20043;-74
2021/03/20 01:46:37;;;;;;;11.43;7.65;;;;;;;1.23;82.26;102886.00;5279984;28;20043;-73
2021/03/20 01:49:34;;;;;;;10.15;7.53;;;;;;;1.14;82.23;102889.56;5277138;28;20033;-73
2021/03/20 01:52:12;;;;;;;10.88;8.07;;;;;;;1.09;82.21;102894.75;5281839;28;20036;-72
2021/03/20 01:55:02;;;;;;;10.50;8.23;;;;;;;1.10;82.12;102899.06;5277169;28;20036;-73
2021/03/20 01:57:37;;;;;;;13.38;8.15;;;;;;;1.02;82.35;102895.69;5282994;28;20047;-73
2021/03/20 02:00:12;;;;;;;14.55;8.48;;;;;;;1.02;82.61;102894.84;5284238;28;20024;-73
2021/03/20 02:02:44;;;;;;;13.05;8.88;;;;;;;0.98;82.20;102899.19;5283580;28;20373;-73
2021/03/20 02:05:23;;;;;;;11.75;8.65;;;;;;;1.01;83.13;102896.59;5282555;28;20032;-73
2021/03/20 02:07:57;;;;;;;9.82;7.82;;;;;;;0.94;82.93;102895.78;5283686;28;20055;-73
2021/03/20 02:10:33;;;;;;;13.65;8.65;;;;;;;0.95;82.95;102889.78;5280365;28;20432;-72
2021/03/20 02:13:13;;;;;;;13.35;8.70;;;;;;;0.94;82.35;102885.47;5286575;28;20115;-73
2021/03/20 02:15:53;;;;;;;12.93;8.48;;;;;;;0.92;82.54;102886.38;5287533;28;20047;-73
2021/03/20 02:18:46;;;;;;;11.40;8.57;;;;;;;0.92;82.15;102873.47;5283078;28;20039;-73
2021/03/20 02:21:29;;;;;;;13.23;8.15;;;;;;;0.84;82.22;102875.28;5285683;28;20043;-73
2021/03/20 02:24:34;;;;;;;11.90;8.73;;;;;;;0.89;82.57;102879.50;5287685;28;20024;-73
2021/03/20 02:27:43;;;;;;;12.55;8.90;;;;;;;0.90;82.63;102880.38;5283091;28;20032;-73
2021/03/20 02:30:43;;;;;;;12.40;8.63;;;;;;;0.90;83.05;102878.63;5284303;28;20143;-73
2021/03/20 02:33:48;;;;;;;13.30;8.98;;;;;;;0.86;82.16;102873.53;5279164;28;20499;-73
2021/03/20 02:36:39;;;;;;;12.65;9.30;;;;;;;0.77;83.13;102868.50;5283891;28;20060;-73
2021/03/20 02:39:24;;;;;;;15.45;9.35;;;;;;;0.80;82.19;102868.47;5282044;28;20051;-73
2021/03/20 02:42:04;;;;;;;13.35;8.82;;;;;;;0.73;82.64;102865.94;5281936;28;20059;-72
2021/03/20 02:45:04;;;;;;;14.25;9.55;;;;;;;0.78;82.83;102870.19;5287334;28;20039;-72
2021/03/20 02:47:45;;;;;;;11.32;9.57;;;;;;;0.68;82.51;102874.59;5270845;28;20044;-73
2021/03/20 02:50:32;;;;;;;13.13;9.57;;;;;;;0.65;82.87;102867.75;5281345;28;20119;-73
2021/03/20 02:53:11;;;;;;;12.48;8.95;;;;;;;0.65;83.44;102867.75;5270383;28;20477;-73
2021/03/20 02:55:47;;;;;;;13.93;9.63;;;;;;;0.69;83.49;102869.44;5295289;22;22467;-71
2021/03/20 02:58:35;;;;;;;11.20;9.30;;;;;;;0.65;82.41;102872.91;5253959;28;20033;-70
2021/03/20 03:01:11;;;;;;;14.15;9.55;;;;;;;0.55;82.17;102868.72;5254964;28;20028;-71
2021/03/20 03:03:46;;;;;;;11.63;9.35;;;;;;;0.56;82.75;102867.84;5259289;28;20397;-71
2021/03/20 03:06:27;;;;;;;14.35;9.95;;;;;;;0.51;82.56;102867.03;5256755;28;20039;-71
2021/03/20 03:09:10;;;;;;;13.85;9.55;;;;;;;0.53;83.04;102870.47;5257181;28;20111;-71
2021/03/20 03:11:56;;;;;;;17.63;10.65;;;;;;;0.48;82.44;102875.66;5257120;28;20393;-70
2021/03/20 03:14:47;;;;;;;11.82;9.95;;;;;;;0.48;82.77;102890.28;5262068;28;20025;-71
2021/03/20 03:17:23;;;;;;;13.77;9.52;;;;;;;0.37;82.72;102880.06;5266337;28;20029;-71
2021/03/20 03:20:04;;;;;;;16.25;9.75;;;;;;;0.40;82.54;102881.78;5260722;28;20025;-70
2021/03/20 03:22:43;;;;;;;15.15;10.85;;;;;;;0.37;82.43;102876.63;5260259;28;20107;-71
2021/03/20 03:25:19;;;;;;;14.27;10.15;;;;;;;0.31;82.79;102880.13;5259560;28;20389;-70
2021/03/20 03:27:53;;;;;;;15.55;10.55;;;;;;;0.32;82.75;102873.25;5259728;28;20025;-70
2021/03/20 03:30:25;;;;;;;14.27;10.77;;;;;;;0.36;82.64;102874.94;5258220;28;20121;-71
2021/03/20 03:33:03;;;;;;;14.30;9.93;;;;;;;0.37;83.26;102882.63;5258321;28;20052;-70
2021/03/20 03:35:43;;;;;;;17.60;10.80;;;;;;;0.32;83.44;102874.09;5260074;28;20287;-76
2021/03/20 03:38:24;;;;;;;15.02;10.55;;;;;;;0.27;82.96;102878.47;5247842;28;20047;-70
2021/03/20 03:41:00;;;;;;;15.27;10.70;;;;;;;0.21;83.12;102870.78;5259521;28;20029;-69
2021/03/20 03:43:31;;;;;;;14.85;10.32;;;;;;;0.19;82.82;102878.53;5258754;28;20032;-69
2021/03/20 03:46:03;;;;;;;14.65;10.65;;;;;;;0.20;82.92;102879.38;5255393;28;20032;-69
2021/03/20 03:48:35;;;;;;;14.68;10.43;;;;;;;0.20;83.57;102872.50;5251426;28;20078;-69
2021/03/20 03:51:09;;;;;;;16.90;11.02;;;;;;;0.19;83.56;102875.97;5258457;28;20078;-70
2021/03/20 03:53:41;;;;;;;14.57;10.98;;;;;;;0.14;83.39;102882.84;5257864;28;20060;-69
2021/03/20 03:56:51;;;;;;;14.85;10.95;;;;;;;0.23;82.93;102885.38;5258569;28;20049;-70
2021/03/20 03:59:39;;;;;;;16.48;11.57;;;;;;;0.10;83.17;102886.31;5259817;28;20036;-70
2021/03/20 04:02:26;;;;;;;15.10;10.48;;;;;;;0.07;83.00;102880.34;5256961;28;20040;-70
2021/03/20 04:05:03;;;;;;;13.52;10.10;;;;;;;0.01;82.55;102873.53;5256056;28;20028;-70
2021/03/20 04:07:55;;;;;;;13.65;10.93;;;;;;;0.04;82.80;102886.41;5259293;28;20480;-70
2021/03/20 04:10:34;;;;;;;13.30;10.23;;;;;;;-0.01;83.14;102888.13;5262296;28;20045;-70
2021/03/20 04:13:17;;;;;;;17.30;10.32;;;;;;;-0.05;82.36;102877.00;5237836;28;20022;-69
2021/03/20 04:16:09;;;;;;;13.20;10.20;;;;;;;0.00;82.66;102887.28;5234735;28;20037;-70
2021/03/20 04:19:12;;;;;;;16.90;10.95;;;;;;;-0.08;82.41;102892.47;5252547;28;20039;-70
2021/03/20 04:22:01;;;;;;;13.30;10.18;;;;;;;-0.10;82.20;102888.22;5264341;28;20485;-70
2021/03/20 04:24:40;;;;;;;13.48;10.85;;;;;;;-0.23;82.25;102892.59;5265222;28;20056;-70
2021/03/20 04:27:17;;;;;;;12.77;10.27;;;;;;;-0.26;82.53;102900.34;5257143;28;20482;-70
2021/03/20 04:29:59;;;;;;;14.38;10.30;;;;;;;-0.32;83.16;102906.38;5259638;28;20410;-70
2021/03/20 04:32:40;;;;;;;13.80;10.50;;;;;;;-0.41;83.23;102898.72;5259388;28;20020;-70
2021/03/20 04:35:25;;;;;;;14.63;9.73;;;;;;;-0.37;82.37;102905.56;5259076;28;20025;-70
2021/03/20 04:37:59;;;;;;;15.02;10.38;;;;;;;-0.37;83.01;102910.72;5226883;28;20032;-70
2021/03/20 04:40:46;;;;;;;15.32;10.25;;;;;;;-0.41;82.74;102914.19;5257430;28;20107;-70
2021/03/20 04:43:23;;;;;;;14.98;10.20;;;;;;;-0.58;82.25;102910.81;5241972;28;20021;-70
2021/03/20 04:46:05;;;;;;;12.57;10.70;;;;;;;-0.56;82.57;102916.84;5244969;28;20025;-70
2021/03/20 04:48:39;;;;;;;15.00;10.55;;;;;;;-0.60;82.79;102918.56;5253468;28;20065;-70
2021/03/20 04:51:23;;;;;;;13.10;10.05;;;;;;;-0.59;82.75;102920.28;5259205;28;20104;-70
2021/03/20 04:54:07;;;;;;;13.20;10.73;;;;;;;-0.60;82.60;102928.88;5256058;28;20033;-70
2021/03/20 04:56:52;;;;;;;13.60;10.15;;;;;;;-0.61;83.18;102939.16;5259956;28;20049;-70
2021/03/20 04:59:44;;;;;;;13.20;10.30;;;;;;;-0.68;82.86;102935.78;5259283;28;20409;-70
2021/03/20 05:02:27;;;;;;;14.93;10.93;;;;;;;-0.74;82.72;102931.50;5250049;28;20070;-70
2021/03/20 05:05:08;;;;;;;12.65;9.85;;;;;;;-0.74;82.81;102928.91;5253953;28;20102;-69
2021/03/20 05:07:39;;;;;;;10.95;9.82;;;;;;;-0.75;82.51;102934.94;5246828;28;20431;-70
2021/03/20 05:10:21;;;;;;;12.10;9.95;;;;;;;-0.78;82.71;102929.78;5259124;28;20041;-70
2021/03/20 05:12:55;;;;;;;15.15;10.38;;;;;;;-0.86;83.04;102926.41;5259903;28;20473;-70
2021/03/20 05:15:33;;;;;;;13.55;10.18;;;;;;;-0.87;82.08;102924.69;5239704;28;20437;-69
2021/03/20 05:18:04;;;;;;;12.55;9.35;;;;;;;-0.94;82.48;102924.72;5259369;28;20108;-70
2021/03/20 05:20:36;;;;;;;11.95;10.32;;;;;;;-0.94;82.38;102928.16;5259810;28;20466;-70
2021/03/20 05:23:10;;;;;;;14.75;9.88;;;;;;;-0.97;82.81;102928.16;5258663;28;20028;-69
2021/03/20 05:25:41;;;;;;;14.15;9.88;;;;;;;-1.08;82.64;102917.03;5256851;28;20082;-69
2021/03/20 05:28:13;;;;;;;13.32;10.13;;;;;;;-1.14;82.92;102923.03;5241243;28;20025;-70
2021/03/20 05:30:44;;;;;;;13.52;10.40;;;;;;;-1.17;83.09;102923.06;5257631;28;20021;-70
2021/03/20 05:33:15;;;;;;;12.52;9.85;;;;;;;-1.20;83.16;102923.06;5259104;28;20300;-70
2021/03/20 05:35:46;;;;;;;13.57;10.00;;;;;;;-1.29;83.25;102923.97;5259474;28;20223;-69
2021/03/20 05:38:18;;;;;;;12.00;9.93;;;;;;;-1.24;83.51;102923.94;5251049;28;20040;-70
2021/03/20 05:40:55;;;;;;;13.70;9.93;;;;;;;-1.32;83.38;102910.25;5259851;28;20462;-70
2021/03/20 05:44:17;;;;;;;14.45;10.20;;;;;;;-1.17;83.06;102923.06;5257160;28;20029;-70
2021/03/20 05:46:57;;;;;;;13.65;9.38;;;;;;;-1.27;83.13;102924.78;5220962;28;20589;-69
2021/03/20 05:49:35;;;;;;;14.52;11.10;;;;;;;-1.26;83.32;102930.78;5250699;28;20029;-70
2021/03/20 05:52:25;;;;;;;14.80;10.10;;;;;;;-1.29;83.56;102923.06;5244265;28;20509;-70
2021/03/20 05:55:48;;;;;;;16.23;10.23;;;;;;;-1.21;82.83;102934.22;5258029;28;20040;-69
2021/03/20 05:58:31;;;;;;;14.23;9.70;;;;;;;-1.29;83.17;102939.38;5234608;28;20458;-70
2021/03/20 06:01:12;;;;;;;13.95;10.25;;;;;;;-1.30;84.06;102944.53;5242718;28;20037;-69
2021/03/20 06:04:06;;;;;;;15.50;10.57;;;;;;;-1.25;83.26;102946.25;5258427;28;20520;-69
2021/03/20 06:06:52;;;;;;;13.75;10.07;;;;;;;-1.27;83.53;102939.38;5262988;28;20477;-69
2021/03/20 06:09:34;;;;;;;12.18;9.60;;;;;;;-1.35;83.27;102941.97;5261325;28;20029;-69
2021/03/20 06:12:12;;;;;;;13.70;9.93;;;;;;;-1.37;83.97;102946.22;5262681;28;20154;-69
2021/03/20 06:14:57;;;;;;;16.25;10.90;;;;;;;-1.38;83.61;102944.53;5257377;28;20448;-69
2021/03/20 06:17:49;;;;;;;15.70;11.40;;;;;;;-1.31;83.60;102955.66;5249659;28;20401;-69
2021/03/20 06:20:27;;;;;;;16.70;10.57;;;;;;;-1.27;83.25;102952.22;5242606;28;20028;-70
2021/03/20 06:23:19;;;;;;;14.20;11.32;;;;;;;-1.30;84.22;102957.38;5261705;28;20090;-70
2021/03/20 06:26:13;;;;;;;14.93;11.23;;;;;;;-1.27;83.79;102955.66;5261132;28;20025;-70
2021/03/20 06:28:57;;;;;;;15.50;10.80;;;;;;;-1.27;83.18;102952.22;5260794;28;20127;-70
2021/03/20 06:31:33;;;;;;;14.82;11.02;;;;;;;-1.32;83.43;102949.69;5260200;28;20024;-70
2021/03/20 06:34:14;;;;;;;14.10;10.48;;;;;;;-1.29;83.97;102952.25;5262473;28;20032;-70
2021/03/20 06:37:00;;;;;;;14.20;11.10;;;;;;;-1.19;84.58;102967.66;5262069;28;20076;-70
2021/03/20 06:39:39;;;;;;;15.95;11.13;;;;;;;-1.18;83.71;102974.50;5261580;28;20020;-70
2021/03/20 06:42:21;;;;;;;16.05;11.55;;;;;;;-1.13;83.85;102977.94;5260739;28;20074;-70
2021/03/20 06:45:01;;;;;;;14.95;11.95;;;;;;;-1.14;83.90;102976.19;5246731;28;20028;-70
2021/03/20 06:47:34;;;;;;;14.32;10.40;;;;;;;-1.10;84.43;102985.63;5262066;28;20037;-70
2021/03/20 06:50:20;;;;;;;13.68;11.05;;;;;;;-0.98;84.30;102988.19;5262615;28;20087;-70
2021/03/20 06:53:05;;;;;;;16.55;11.15;;;;;;;-0.95;83.87;102990.72;5261424;28;20025;-70
2021/03/20 06:55:46;;;;;;;16.08;10.63;;;;;;;-0.93;83.89;102981.31;5261410;28;20497;-70
2021/03/20 06:58:25;;;;;;;14.95;10.32;;;;;;;-0.88;84.18;102978.72;5261909;28;20087;-70
2021/03/20 07:01:00;;;;;;;15.32;10.45;;;;;;;-0.82;83.75;102989.00;5234722;28;20025;-70
2021/03/20 07:03:48;;;;;;;15.15;11.43;;;;;;;-0.77;83.70;102993.25;5261187;28;20025;-70
2021/03/20 07:06:33;;;;;;;12.70;10.60;;;;;;;-0.69;83.74;102993.25;5261762;28;20086;-70
2021/03/20 07:09:07;;;;;;;13.38;10.38;;;;;;;-0.65;83.19;102996.66;5260875;28;20200;-70
2021/03/20 07:12:00;;;;;;;13.88;10.48;;;;;;;-0.57;84.17;102997.50;5262112;28;20104;-70
2021/03/20 07:14:44;;;;;;;14.07;10.27;;;;;;;-0.52;82.97;103011.22;5259129;28;20343;-70
2021/03/20 07:17:22;;;;;;;14.48;10.48;;;;;;;-0.40;83.00;103012.88;5260420;28;20517;-70
2021/03/20 07:20:03;;;;;;;13.82;10.43;;;;;;;-0.38;82.86;103013.72;5261372;28;20397;-70
2021/03/20 07:22:45;;;;;;;11.20;8.45;;;;;;;-0.30;81.98;103019.72;5260867;28;20025;-69
2021/03/20 07:25:33;;;;;;;13.95;9.90;;;;;;;-0.17;81.79;103023.94;5243367;28;20507;-70
2021/03/20 07:28:12;;;;;;;10.90;8.98;;;;;;;-0.09;81.56;103029.91;5259251;28;20082;-70
2021/03/20 07:30:51;;;;;;;11.65;9.10;;;;;;;-0.06;81.09;103031.63;5258930;28;20060;-70
2021/03/20 07:33:28;;;;;;;12.70;9.43;;;;;;;0.08;80.31;103026.41;5258990;28;20059;-70
2021/03/20 07:36:17;;;;;;;11.85;8.95;;;;;;;0.15;80.45;103028.91;5245421;28;20094;-70
2021/03/20 07:39:05;;;;;;;9.40;7.53;;;;;;;0.23;78.79;103027.16;5258386;28;20365;-70
2021/03/20 07:41:54;;;;;;;11.48;7.97;;;;;;;0.27;78.45;103022.81;5257803;28;20086;-70
2021/03/20 07:44:29;;;;;;;11.00;7.60;;;;;;;0.41;77.43;103025.28;5258646;28;20229;-71
2021/03/20 07:47:00;;;;;;;9.10;7.38;;;;;;;0.46;76.83;103032.13;5233398;28;20482;-70
2021/03/20 07:49:33;;;;;;;9.60;7.85;;;;;;;0.56;77.31;103038.06;5257675;28;20048;-70
2021/03/20 07:52:20;;;;;;;10.07;6.95;;;;;;;0.71;77.32;103037.94;5258935;28;20480;-70
2021/03/20 07:55:26;;;;;;;10.73;7.78;;;;;;;0.78;76.17;103032.75;5255861;28;20017;-70
2021/03/20 07:58:00;;;;;;;10.95;7.50;;;;;;;0.86;75.26;103036.09;5256748;28;20493;-70
2021/03/20 08:00:34;;;;;;;9.35;6.53;;;;;;;0.98;74.67;103025.66;5258547;28;20497;-70
2021/03/20 08:03:21;;;;;;;9.73;6.75;;;;;;;1.09;74.86;103028.13;5257615;28;20029;-69
2021/03/20 08:05:52;;;;;;;11.77;6.80;;;;;;;1.17;74.49;103036.66;5258507;28;20027;-70
2021/03/20 08:08:26;;;;;;;10.13;7.15;;;;;;;1.27;73.67;103029.69;5258599;28;20037;-70
2021/03/20 08:10:59;;;;;;;10.35;6.70;;;;;;;1.32;73.24;103028.75;5257457;28;20029;-70
2021/03/20 08:13:44;;;;;;;8.30;6.00;;;;;;;1.47;72.96;103032.88;5258061;28;20078;-70
2021/03/20 08:16:19;;;;;;;9.15;6.38;;;;;;;1.55;72.56;103022.47;5239846;28;20552;-70
2021/03/20 08:18:54;;;;;;;7.35;5.78;;;;;;;1.65;70.24;103017.16;5258932;28;20494;-70
2021/03/20 08:21:25;;;;;;;10.30;5.20;;;;;;;1.77;69.56;103010.97;5257257;28;20435;-70
2021/03/20 08:24:20;;;;;;;6.20;4.67;;;;;;;1.92;68.97;103015.09;5260255;28;20059;-70
2021/03/20 08:26:51;;;;;;;6.82;4.80;;;;;;;2.04;68.90;103017.50;5259662;28;20294;-70
2021/03/20 08:29:53;;;;;;;6.93;4.37;;;;;;;2.12;69.41;103017.38;5259328;28;20024;-70
2021/03/20 08:32:50;;;;;;;7.18;4.00;;;;;;;2.17;67.14;103011.28;5239629;28;20280;-70
2021/03/20 08:35:35;;;;;;;7.70;4.13;;;;;;;2.34;67.40;103015.34;5256428;28;20033;-70
2021/03/20 08:38:18;;;;;;;4.85;3.60;;;;;;;2.56;63.13;103005.50;5241761;28;20405;-70
2021/03/20 08:41:18;;;;;;;8.88;3.53;;;;;;;2.68;62.37;103003.56;5250007;28;20055;-70
2021/03/20 08:44:18;;;;;;;4.70;3.38;;;;;;;2.76;64.60;103010.34;5260249;28;20025;-70
2021/03/20 08:46:59;;;;;;;6.35;4.68;;;;;;;2.88;65.46;103012.72;5259503;28;20490;-70
2021/03/20 08:49:55;;;;;;;6.50;4.25;;;;;;;2.95;64.70;103011.72;5258619;28;20037;-69
2021/03/20 08:52:42;;;;;;;7.15;4.05;;;;;;;3.06;63.61;103004.59;5238084;28;20049;-69
2021/03/20 08:55:35;;;;;;;6.20;4.28;;;;;;;3.18;63.04;103006.09;5256200;28;20437;-69
2021/03/20 08:58:22;;;;;;;5.40;3.42;;;;;;;3.38;61.85;102997.97;5248671;28;20371;-69
2021/03/20 09:00:58;;;;;;;5.28;4.18;;;;;;;3.41;61.70;103003.09;5258696;28;20116;-69
2021/03/20 09:03:40;;;;;;;5.43;4.00;;;;;;;3.51;62.11;103001.16;5258225;28;20021;-69
2021/03/20 09:06:29;;;;;;;5.82;4.28;;;;;;;3.66;62.09;103009.44;5251561;28;20041;-69
2021/03/20 09:09:17;;;;;;;4.78;3.50;;;;;;;3.75;59.08;103015.31;5253110;28;20394;-71
2021/03/20 09:12:06;;;;;;;6.68;3.97;;;;;;;3.83;59.55;103016.03;5255268;28;20722;-69
2021/03/20 09:14:43;;;;;;;4.78;4.22;;;;;;;3.96;58.33;103006.25;5255339;28;20025;-69
2021/03/20 09:17:42;;;;;;;6.75;4.03;;;;;;;3.98;59.03;103007.91;5254472;28;20028;-71
2021/03/20 09:20:38;;;;;;;5.95;4.28;;;;;;;4.20;60.71;103017.78;5258735;28;20025;-70
2021/03/20 09:23:39;;;;;;;6.70;4.63;;;;;;;4.29;58.46;103012.41;5257290;28;20017;-69
2021/03/20 09:26:32;;;;;;;6.30;4.22;;;;;;;4.29;57.43;103012.41;5256354;28;20033;-69
2021/03/20 09:29:09;;;;;;;7.87;4.50;;;;;;;4.41;55.96;103013.84;5257410;28;20039;-69
2021/03/20 09:31:54;;;;;;;6.28;4.10;;;;;;;4.47;57.14;103016.28;5256600;28;20729;-70
2021/03/20 09:34:32;;;;;;;7.32;4.72;;;;;;;4.63;56.37;103015.03;5253195;28;20087;-69
2021/03/20 09:37:26;;;;;;;5.82;4.32;;;;;;;4.68;56.36;103023.53;5258307;28;20037;-70
2021/03/20 09:39:57;;;;;;;4.93;4.00;;;;;;;4.79;57.69;103018.09;5248203;28;20116;-69
2021/03/20 09:42:32;;;;;;;7.70;3.72;;;;;;;4.96;55.16;103010.69;5262464;28;20453;-70
2021/03/20 09:45:12;;;;;;;6.68;4.53;;;;;;;4.97;54.05;103015.00;5261410;28;20493;-71
2021/03/20 09:47:43;;;;;;;5.47;3.80;;;;;;;5.07;54.51;103016.44;5258987;28;20230;-70
2021/03/20 09:50:17;;;;;;;4.37;3.43;;;;;;;5.28;54.47;103021.97;5257458;28;20071;-69
2021/03/20 09:53:13;;;;;;;5.20;3.28;;;;;;;5.38;52.92;103023.44;5244674;28;20044;-70
2021/03/20 09:55:50;;;;;;;4.47;3.47;;;;;;;5.46;53.21;103012.81;5250156;28;20588;-69
2021/03/20 09:58:21;;;;;;;4.65;3.40;;;;;;;5.44;52.98;103023.25;5260889;28;20090;-69
2021/03/20 10:00:53;;;;;;;4.20;2.97;;;;;;;5.55;52.46;103015.13;5261220;28;20032;-69
2021/03/20 10:03:45;;;;;;;4.13;2.75;;;;;;;5.70;53.14;103009.50;5260047;28;20033;-70
2021/03/20 10:06:34;;;;;;;4.95;3.17;;;;;;;5.74;52.35;103011.09;5259201;28;20028;-71
2021/03/20 10:09:11;;;;;;;6.57;3.25;;;;;;;5.88;52.73;103002.03;5256327;28;20120;-71
2021/03/20 10:11:52;;;;;;;3.90;2.88;;;;;;;5.98;51.91;103004.31;5263400;28;20039;-69
2021/03/20 10:14:34;;;;;;;3.63;2.80;;;;;;;5.92;49.15;102999.31;5262770;28;20482;-70
2021/03/20 10:17:14;;;;;;;4.45;3.15;;;;;;;6.06;52.20;103001.47;5240057;28;20033;-69
2021/03/20 10:19:54;;;;;;;4.32;3.10;;;;;;;6.16;50.89;103002.06;5258801;28;20044;-69
2021/03/20 10:22:33;;;;;;;4.82;3.10;;;;;;;6.21;51.01;103000.16;5261723;28;20025;-70
2021/03/20 10:25:06;;;;;;;5.28;3.45;;;;;;;6.18;50.37;102993.31;5244372;28;20167;-69
2021/03/20 10:27:40;;;;;;;4.15;3.33;;;;;;;6.22;50.75;102997.50;5252397;28;20082;-70
2021/03/20 10:30:19;;;;;;;4.68;3.67;;;;;;;6.36;50.72;102991.00;5260558;28;20077;-69
2021/03/20 10:33:07;;;;;;;5.78;3.55;;;;;;;6.36;52.22;102986.63;5259928;28;20033;-70
2021/03/20 10:35:39;;;;;;;5.63;3.53;;;;;;;6.32;50.75;102988.50;5257689;28;20552;-70
2021/03/20 10:38:21;;;;;;;5.78;3.83;;;;;;;6.49;50.16;102982.75;5259535;28;20025;-70
2021/03/20 10:41:16;;;;;;;6.80;3.70;;;;;;;6.60;50.07;102974.56;5256205;28;20099;-70
2021/03/20 10:43:52;;;;;;;4.68;2.88;;;;;;;6.81;49.52;102979.03;5241994;28;20037;-72
2021/03/20 10:46:27;;;;;;;5.10;3.30;;;;;;;6.77;47.51;102969.63;5262775;28;20493;-70
2021/03/20 10:49:02;;;;;;;3.78;3.17;;;;;;;6.81;47.39;102970.38;5260689;28;20047;-70
2021/03/20 10:51:39;;;;;;;3.90;3.25;;;;;;;6.78;50.07;102970.47;5256535;28;20108;-70
2021/03/20 10:54:33;;;;;;;4.35;3.20;;;;;;;6.83;50.30;102966.81;5241775;28;20025;-70
2021/03/20 10:57:26;;;;;;;6.80;3.67;;;;;;;6.90;50.70;102964.00;5240815;28;20130;-70
2021/03/20 10:59:59;;;;;;;4.75;3.60;;;;;;;6.83;46.50;102963.34;5259424;28;20272;-70
2021/03/20 11:02:32;;;;;;;4.30;3.08;;;;;;;6.99;47.53;102956.69;5259952;28;20056;-70
2021/03/20 11:05:12;;;;;;;4.38;3.28;;;;;;;7.18;48.54;102963.84;5243415;28;20025;-70
2021/03/20 11:07:48;;;;;;;3.30;2.85;;;;;;;7.09;46.41;102954.63;5261583;28;20032;-70
2021/03/20 11:10:36;;;;;;;5.55;3.30;;;;;;;7.30;48.62;102943.38;5246653;28;20033;-70
2021/03/20 11:13:22;;;;;;;4.93;3.55;;;;;;;7.54;47.52;102953.81;5223058;28;20021;-70
2021/03/20 11:16:04;;;;;;;5.05;3.45;;;;;;;7.60;47.15;102947.50;5253169;28;20029;-70
2021/03/20 11:18:40;;;;;;;4.32;3.00;;;;;;;7.73;47.21;102940.91;5260565;28;20056;-70
2021/03/20 11:21:18;;;;;;;4.55;2.97;;;;;;;7.82;46.80;102937.06;5260903;28;20028;-70
2021/03/20 11:23:58;;;;;;;4.75;3.08;;;;;;;7.85;45.44;102939.56;5261409;28;20019;-70
2021/03/20 11:26:40;;;;;;;5.65;3.13;;;;;;;7.90;45.76;102945.44;5260003;28;20112;-70
2021/03/20 11:29:17;;;;;;;5.40;2.75;;;;;;;7.93;43.66;102943.56;5252187;28;20441;-70
2021/03/20 11:31:51;;;;;;;4.78;3.08;;;;;;;7.98;42.31;102930.31;5261315;28;20555;-69
2021/03/20 11:34:35;;;;;;;4.20;3.00;;;;;;;8.10;43.61;102923.75;5241605;28;20033;-70
2021/03/20 11:37:20;;;;;;;4.53;3.00;;;;;;;8.18;42.81;102914.72;5256560;28;20068;-70
2021/03/20 11:39:56;;;;;;;3.67;2.72;;;;;;;8.07;43.16;102908.22;5256906;28;20035;-70
2021/03/20 11:42:37;;;;;;;5.93;3.17;;;;;;;8.16;44.62;102920.91;5238784;28;20026;-70
2021/03/20 11:45:17;;;;;;;4.78;3.35;;;;;;;8.21;45.03;102918.94;5240591;28;20100;-70
2021/03/20 11:47:50;;;;;;;3.75;2.83;;;;;;;8.15;44.27;102916.59;5260222;28;20071;-70
2021/03/20 11:50:26;;;;;;;6.45;2.83;;;;;;;8.33;43.89;102912.34;5243110;28;20436;-70
2021/03/20 11:53:03;;;;;;;4.07;3.05;;;;;;;8.17;45.22;102912.16;5260884;28;20031;-71
2021/03/20 11:55:38;;;;;;;5.60;3.50;;;;;;;8.19;44.54;102910.34;5258130;28;20060;-70
2021/03/20 11:58:31;;;;;;;4.95;3.15;;;;;;;8.37;46.45;102906.06;5239366;28;20403;-70
2021/03/20 12:01:33;;;;;;;5.40;3.38;;;;;;;8.43;45.27;102905.84;5259017;28;20031;-70
2021/03/20 12:04:10;;;;;;;4.97;3.30;;;;;;;8.68;44.63;102903.88;5251523;28;20036;-69
2021/03/20 12:06:42;;;;;;;5.05;3.90;;;;;;;8.66;44.16;102902.25;5259483;28;20068;-71
2021/03/20 12:09:33;;;;;;;5.22;3.30;;;;;;;8.67;42.44;102898.72;5259341;28;20064;-71
2021/03/20 12:12:07;;;;;;;5.07;3.30;;;;;;;8.78;42.73;102893.88;5251512;28;20041;-70
2021/03/20 12:14:38;;;;;;;;;;;;;;;9.12;45.59;102887.13;5260598;28;20025;-71
2021/03/20 12:17:09;;;;;;;4.13;3.17;;;;;;;8.78;42.49;102883.41;5255916;28;19927;-70
2021/03/20 12:19:53;;;;;;;4.38;2.95;;;;;;;8.94;43.51;102879.22;5260155;28;20073;-70
2021/03/20 12:22:31;;;;;;;4.22;2.78;;;;;;;9.07;44.19;102868.19;5258543;28;20037;-71
2021/03/20 12:25:29;;;;;;;4.45;2.85;;;;;;;9.04;44.35;102863.94;5252784;28;20044;-70
2021/03/20 12:28:27;;;;;;;6.20;3.08;;;;;;;9.19;43.42;102862.38;5253910;28;20029;-70